Main page
METAR-TAF:

METAR-TAF

Airports :

Solenzara Air Base

Solenzara, France

latitude: 41-55N, longitude: 009-24E, elevation: 8 m

Current weather observation

The report was made 23 minutes ago, at 23:00 UTC
Wind 13 kt from the Southeast
Temperature 15°C
Humidity 100%
Pressure 1001 hPa
Visibility: 4600 m
mist

METAR: LFKS 222300Z AUTO 14013KT 4600 BR SCT009/// OVC022/// ///TCU 15/15 Q1001

Time: 01:23 (23:23 UTC)

Forecast

The report was made 15 hours and 23 minutes ago, at 08:00 UTC
Forecast valid from 22 at 09 UTC to 23 at 09 UTC
Wind 5 kt from the West/Northwest
Visibility 10 km or more
Few clouds at a height of 4500 ft

TAF: LFKS 220800Z 2209/2309 30005KT 9999 FEW045

Weather observations and forecasts of more than 4000 airports (METAR and TAF reports).

The available stations are represented by yellow and red dots on the map.

Hover mouse over dot to see the name of the station.

Then click to see weather observations and forecasts.

To change the map : click on the green buttons with a black cross to zoom in, on the green button with a dash to zoom out, or on the green arrows for adjacent maps.


METAR-TAF: